<?xml version="1.0" encoding="UTF-8" standalone="no" ?>
<gpx xmlns="http://www.topografix.com/GPX/1/1" xmlns:xsi="http://www.w3.org/2001/XMLSchema-instance" xsi:schemaLocation="http://www.topografix.com/GPX/1/1 http://www.topografix.com/GPX/1/1/gpx.xsd" version="1.1" creator="VisuGPX - https://www.visugpx.com">
  <metadata>
    <name>Parcours Test DH noire - Trail Running Portes du Soleil</name>
  </metadata>
  <trk>
    <name><![CDATA[Parcours Test DH noire - Trail Running Portes du Soleil]]></name>
    <extensions>
      <line xmlns="http://www.topografix.com/GPX/gpx_style/0/2">
        <color>0000FF</color>
        <width>4</width>
      </line>
    </extensions>
    <trkseg>
      <trkpt lat="46.16078" lon="6.66964">
        <ele>1163</ele>
        <time>2000-01-01T00:39:31.000Z</time>
      </trkpt>
      <trkpt lat="46.16101" lon="6.6691">
        <ele>1171</ele>
        <time>2000-01-01T00:39:41.000Z</time>
      </trkpt>
      <trkpt lat="46.16125" lon="6.66855">
        <ele>1182</ele>
        <time>2000-01-01T00:39:51.000Z</time>
      </trkpt>
      <trkpt lat="46.16148" lon="6.66801">
        <ele>1204</ele>
        <time>2000-01-01T00:40:01.000Z</time>
      </trkpt>
      <trkpt lat="46.16172" lon="6.66746">
        <ele>1224</ele>
        <time>2000-01-01T00:40:11.000Z</time>
      </trkpt>
      <trkpt lat="46.16195" lon="6.66692">
        <ele>1234</ele>
        <time>2000-01-01T00:40:21.000Z</time>
      </trkpt>
      <trkpt lat="46.16219" lon="6.66638">
        <ele>1251</ele>
        <time>2000-01-01T00:40:31.000Z</time>
      </trkpt>
      <trkpt lat="46.16242" lon="6.66583">
        <ele>1270</ele>
        <time>2000-01-01T00:40:41.000Z</time>
      </trkpt>
      <trkpt lat="46.16266" lon="6.66529">
        <ele>1287</ele>
        <time>2000-01-01T00:40:51.000Z</time>
      </trkpt>
      <trkpt lat="46.16289" lon="6.66474">
        <ele>1300</ele>
        <time>2000-01-01T00:41:01.000Z</time>
      </trkpt>
      <trkpt lat="46.16313" lon="6.6642">
        <ele>1323</ele>
        <time>2000-01-01T00:41:11.000Z</time>
      </trkpt>
      <trkpt lat="46.16336" lon="6.66366">
        <ele>1348</ele>
        <time>2000-01-01T00:41:21.000Z</time>
      </trkpt>
      <trkpt lat="46.16359" lon="6.66311">
        <ele>1372</ele>
        <time>2000-01-01T00:41:31.000Z</time>
      </trkpt>
      <trkpt lat="46.16383" lon="6.66257">
        <ele>1389</ele>
        <time>2000-01-01T00:41:41.000Z</time>
      </trkpt>
      <trkpt lat="46.16406" lon="6.66203">
        <ele>1397</ele>
        <time>2000-01-01T00:41:51.000Z</time>
      </trkpt>
      <trkpt lat="46.1643" lon="6.66148">
        <ele>1418</ele>
        <time>2000-01-01T00:42:01.000Z</time>
      </trkpt>
      <trkpt lat="46.16453" lon="6.66094">
        <ele>1441</ele>
        <time>2000-01-01T00:42:11.000Z</time>
      </trkpt>
      <trkpt lat="46.16477" lon="6.66039">
        <ele>1466</ele>
        <time>2000-01-01T00:42:21.000Z</time>
      </trkpt>
      <trkpt lat="46.165" lon="6.65985">
        <ele>1507</ele>
        <time>2000-01-01T00:42:31.000Z</time>
      </trkpt>
      <trkpt lat="46.16524" lon="6.65931">
        <ele>1520</ele>
        <time>2000-01-01T00:42:41.000Z</time>
      </trkpt>
      <trkpt lat="46.16557" lon="6.65853">
        <ele>1533</ele>
        <time>2000-01-01T00:42:51.000Z</time>
      </trkpt>
      <trkpt lat="46.16529" lon="6.65818">
        <ele>1534</ele>
        <time>2000-01-01T00:43:01.000Z</time>
      </trkpt>
      <trkpt lat="46.16515" lon="6.65817">
        <ele>1533.2</ele>
        <time>2000-01-01T00:43:11.000Z</time>
      </trkpt>
      <trkpt lat="46.16492" lon="6.65826">
        <ele>1534</ele>
        <time>2000-01-01T00:43:21.000Z</time>
      </trkpt>
      <trkpt lat="46.16471" lon="6.65822">
        <ele>1526</ele>
        <time>2000-01-01T00:43:31.000Z</time>
      </trkpt>
      <trkpt lat="46.16439" lon="6.6579">
        <ele>1525</ele>
        <time>2000-01-01T00:43:41.000Z</time>
      </trkpt>
      <trkpt lat="46.16432" lon="6.65787">
        <ele>1524.1</ele>
        <time>2000-01-01T00:43:51.000Z</time>
      </trkpt>
      <trkpt lat="46.16426" lon="6.65786">
        <ele>1522.5</ele>
        <time>2000-01-01T00:44:01.000Z</time>
      </trkpt>
      <trkpt lat="46.16423" lon="6.65801">
        <ele>1519</ele>
        <time>2000-01-01T00:44:11.000Z</time>
      </trkpt>
      <trkpt lat="46.16426" lon="6.65815">
        <ele>1519</ele>
        <time>2000-01-01T00:44:21.000Z</time>
      </trkpt>
      <trkpt lat="46.16422" lon="6.65827">
        <ele>1515</ele>
        <time>2000-01-01T00:44:31.000Z</time>
      </trkpt>
      <trkpt lat="46.16417" lon="6.65833">
        <ele>1513.2</ele>
        <time>2000-01-01T00:44:41.000Z</time>
      </trkpt>
      <trkpt lat="46.16416" lon="6.65833">
        <ele>1512.7</ele>
        <time>2000-01-01T00:44:51.000Z</time>
      </trkpt>
      <trkpt lat="46.16406" lon="6.65827">
        <ele>1509.1</ele>
        <time>2000-01-01T00:45:01.000Z</time>
      </trkpt>
      <trkpt lat="46.16389" lon="6.65806">
        <ele>1503</ele>
        <time>2000-01-01T00:45:11.000Z</time>
      </trkpt>
      <trkpt lat="46.1637" lon="6.65776">
        <ele>1503</ele>
        <time>2000-01-01T00:45:21.000Z</time>
      </trkpt>
      <trkpt lat="46.16355" lon="6.65742">
        <ele>1501</ele>
        <time>2000-01-01T00:45:31.000Z</time>
      </trkpt>
      <trkpt lat="46.16331" lon="6.65688">
        <ele>1500</ele>
        <time>2000-01-01T00:45:41.000Z</time>
      </trkpt>
      <trkpt lat="46.16289" lon="6.65689">
        <ele>1490</ele>
        <time>2000-01-01T00:45:51.000Z</time>
      </trkpt>
      <trkpt lat="46.16269" lon="6.65663">
        <ele>1487</ele>
        <time>2000-01-01T00:46:01.000Z</time>
      </trkpt>
      <trkpt lat="46.16247" lon="6.65609">
        <ele>1486</ele>
        <time>2000-01-01T00:46:11.000Z</time>
      </trkpt>
      <trkpt lat="46.1623" lon="6.65569">
        <ele>1485</ele>
        <time>2000-01-01T00:46:21.000Z</time>
      </trkpt>
      <trkpt lat="46.16218" lon="6.65558">
        <ele>1481.1</ele>
        <time>2000-01-01T00:46:31.000Z</time>
      </trkpt>
      <trkpt lat="46.16208" lon="6.65565">
        <ele>1473</ele>
        <time>2000-01-01T00:46:41.000Z</time>
      </trkpt>
      <trkpt lat="46.16205" lon="6.65577">
        <ele>1475.3</ele>
        <time>2000-01-01T00:46:51.000Z</time>
      </trkpt>
      <trkpt lat="46.16195" lon="6.65594">
        <ele>1469</ele>
        <time>2000-01-01T00:47:01.000Z</time>
      </trkpt>
      <trkpt lat="46.16194" lon="6.65609">
        <ele>1468.9</ele>
        <time>2000-01-01T00:47:11.000Z</time>
      </trkpt>
      <trkpt lat="46.16185" lon="6.6562">
        <ele>1459</ele>
        <time>2000-01-01T00:47:21.000Z</time>
      </trkpt>
      <trkpt lat="46.16182" lon="6.65651">
        <ele>1456</ele>
        <time>2000-01-01T00:47:31.000Z</time>
      </trkpt>
      <trkpt lat="46.16181" lon="6.65685">
        <ele>1453</ele>
        <time>2000-01-01T00:47:41.000Z</time>
      </trkpt>
      <trkpt lat="46.16177" lon="6.65733">
        <ele>1443</ele>
        <time>2000-01-01T00:47:51.000Z</time>
      </trkpt>
      <trkpt lat="46.16179" lon="6.65748">
        <ele>1443</ele>
        <time>2000-01-01T00:48:01.000Z</time>
      </trkpt>
      <trkpt lat="46.16178" lon="6.6576">
        <ele>1439</ele>
        <time>2000-01-01T00:48:11.000Z</time>
      </trkpt>
      <trkpt lat="46.16166" lon="6.65768">
        <ele>1437.3</ele>
        <time>2000-01-01T00:48:21.000Z</time>
      </trkpt>
      <trkpt lat="46.16159" lon="6.65783">
        <ele>1434</ele>
        <time>2000-01-01T00:48:31.000Z</time>
      </trkpt>
      <trkpt lat="46.16174" lon="6.65799">
        <ele>1432.8</ele>
        <time>2000-01-01T00:48:41.000Z</time>
      </trkpt>
      <trkpt lat="46.16186" lon="6.65837">
        <ele>1426</ele>
        <time>2000-01-01T00:48:51.000Z</time>
      </trkpt>
      <trkpt lat="46.16178" lon="6.65869">
        <ele>1420</ele>
        <time>2000-01-01T00:49:01.000Z</time>
      </trkpt>
      <trkpt lat="46.16181" lon="6.65883">
        <ele>1414.9</ele>
        <time>2000-01-01T00:49:11.000Z</time>
      </trkpt>
      <trkpt lat="46.16154" lon="6.65899">
        <ele>1410</ele>
        <time>2000-01-01T00:49:21.000Z</time>
      </trkpt>
      <trkpt lat="46.16113" lon="6.65882">
        <ele>1402</ele>
        <time>2000-01-01T00:49:31.000Z</time>
      </trkpt>
      <trkpt lat="46.16113" lon="6.65889">
        <ele>1400.6</ele>
        <time>2000-01-01T00:49:41.000Z</time>
      </trkpt>
      <trkpt lat="46.16118" lon="6.65897">
        <ele>1400.1</ele>
        <time>2000-01-01T00:49:51.000Z</time>
      </trkpt>
      <trkpt lat="46.16125" lon="6.65917">
        <ele>1396</ele>
        <time>2000-01-01T00:50:01.000Z</time>
      </trkpt>
      <trkpt lat="46.16127" lon="6.65936">
        <ele>1392.6</ele>
        <time>2000-01-01T00:50:11.000Z</time>
      </trkpt>
      <trkpt lat="46.16137" lon="6.65954">
        <ele>1389</ele>
        <time>2000-01-01T00:50:21.000Z</time>
      </trkpt>
      <trkpt lat="46.16137" lon="6.65975">
        <ele>1382.9</ele>
        <time>2000-01-01T00:50:31.000Z</time>
      </trkpt>
      <trkpt lat="46.16149" lon="6.65999">
        <ele>1379</ele>
        <time>2000-01-01T00:50:41.000Z</time>
      </trkpt>
      <trkpt lat="46.16155" lon="6.66008">
        <ele>1374.3</ele>
        <time>2000-01-01T00:50:51.000Z</time>
      </trkpt>
      <trkpt lat="46.16168" lon="6.66009">
        <ele>1376</ele>
        <time>2000-01-01T00:51:01.000Z</time>
      </trkpt>
      <trkpt lat="46.16177" lon="6.66018">
        <ele>1374.2</ele>
        <time>2000-01-01T00:51:11.000Z</time>
      </trkpt>
      <trkpt lat="46.16182" lon="6.6606">
        <ele>1364</ele>
        <time>2000-01-01T00:51:21.000Z</time>
      </trkpt>
      <trkpt lat="46.16184" lon="6.66107">
        <ele>1357</ele>
        <time>2000-01-01T00:51:31.000Z</time>
      </trkpt>
      <trkpt lat="46.16192" lon="6.66139">
        <ele>1355</ele>
        <time>2000-01-01T00:51:41.000Z</time>
      </trkpt>
      <trkpt lat="46.16191" lon="6.66153">
        <ele>1351.5</ele>
        <time>2000-01-01T00:51:51.000Z</time>
      </trkpt>
      <trkpt lat="46.16216" lon="6.66181">
        <ele>1350</ele>
        <time>2000-01-01T00:52:01.000Z</time>
      </trkpt>
      <trkpt lat="46.16215" lon="6.66193">
        <ele>1349.7</ele>
        <time>2000-01-01T00:52:11.000Z</time>
      </trkpt>
      <trkpt lat="46.16221" lon="6.66202">
        <ele>1349.4</ele>
        <time>2000-01-01T00:52:21.000Z</time>
      </trkpt>
      <trkpt lat="46.1622" lon="6.66215">
        <ele>1345</ele>
        <time>2000-01-01T00:52:31.000Z</time>
      </trkpt>
      <trkpt lat="46.16223" lon="6.66228">
        <ele>1344.7</ele>
        <time>2000-01-01T00:52:41.000Z</time>
      </trkpt>
      <trkpt lat="46.1622" lon="6.66232">
        <ele>1343.1</ele>
        <time>2000-01-01T00:52:51.000Z</time>
      </trkpt>
      <trkpt lat="46.16212" lon="6.66228">
        <ele>1343</ele>
        <time>2000-01-01T00:53:01.000Z</time>
      </trkpt>
      <trkpt lat="46.16211" lon="6.66232">
        <ele>1341.3</ele>
        <time>2000-01-01T00:53:11.000Z</time>
      </trkpt>
      <trkpt lat="46.16214" lon="6.66239">
        <ele>1340.2</ele>
        <time>2000-01-01T00:53:21.000Z</time>
      </trkpt>
      <trkpt lat="46.16207" lon="6.66241">
        <ele>1338.4</ele>
        <time>2000-01-01T00:53:31.000Z</time>
      </trkpt>
      <trkpt lat="46.16209" lon="6.66251">
        <ele>1334</ele>
        <time>2000-01-01T00:53:41.000Z</time>
      </trkpt>
      <trkpt lat="46.16206" lon="6.66255">
        <ele>1335</ele>
        <time>2000-01-01T00:53:51.000Z</time>
      </trkpt>
      <trkpt lat="46.162" lon="6.66255">
        <ele>1333.8</ele>
        <time>2000-01-01T00:54:01.000Z</time>
      </trkpt>
      <trkpt lat="46.16192" lon="6.66262">
        <ele>1331</ele>
        <time>2000-01-01T00:54:11.000Z</time>
      </trkpt>
      <trkpt lat="46.16195" lon="6.66294">
        <ele>1323</ele>
        <time>2000-01-01T00:54:21.000Z</time>
      </trkpt>
      <trkpt lat="46.16205" lon="6.66324">
        <ele>1318</ele>
        <time>2000-01-01T00:54:31.000Z</time>
      </trkpt>
      <trkpt lat="46.16206" lon="6.66351">
        <ele>1313</ele>
        <time>2000-01-01T00:54:41.000Z</time>
      </trkpt>
      <trkpt lat="46.1619" lon="6.66367">
        <ele>1308</ele>
        <time>2000-01-01T00:54:51.000Z</time>
      </trkpt>
      <trkpt lat="46.16173" lon="6.66405">
        <ele>1301</ele>
        <time>2000-01-01T00:55:01.000Z</time>
      </trkpt>
      <trkpt lat="46.16183" lon="6.66422">
        <ele>1294.4</ele>
        <time>2000-01-01T00:55:11.000Z</time>
      </trkpt>
      <trkpt lat="46.16195" lon="6.66439">
        <ele>1295</ele>
        <time>2000-01-01T00:55:21.000Z</time>
      </trkpt>
      <trkpt lat="46.16198" lon="6.66456">
        <ele>1289.9</ele>
        <time>2000-01-01T00:55:31.000Z</time>
      </trkpt>
      <trkpt lat="46.16191" lon="6.66459">
        <ele>1289</ele>
        <time>2000-01-01T00:55:41.000Z</time>
      </trkpt>
      <trkpt lat="46.16183" lon="6.6646">
        <ele>1284.6</ele>
        <time>2000-01-01T00:55:51.000Z</time>
      </trkpt>
      <trkpt lat="46.16177" lon="6.66459">
        <ele>1283</ele>
        <time>2000-01-01T00:56:01.000Z</time>
      </trkpt>
      <trkpt lat="46.16177" lon="6.66463">
        <ele>1281.9</ele>
        <time>2000-01-01T00:56:11.000Z</time>
      </trkpt>
      <trkpt lat="46.16183" lon="6.66472">
        <ele>1281</ele>
        <time>2000-01-01T00:56:21.000Z</time>
      </trkpt>
      <trkpt lat="46.16184" lon="6.66481">
        <ele>1279.2</ele>
        <time>2000-01-01T00:56:31.000Z</time>
      </trkpt>
      <trkpt lat="46.16175" lon="6.66477">
        <ele>1277.4</ele>
        <time>2000-01-01T00:56:41.000Z</time>
      </trkpt>
      <trkpt lat="46.16168" lon="6.66469">
        <ele>1277</ele>
        <time>2000-01-01T00:56:51.000Z</time>
      </trkpt>
      <trkpt lat="46.16164" lon="6.66465">
        <ele>1277.1</ele>
        <time>2000-01-01T00:57:01.000Z</time>
      </trkpt>
      <trkpt lat="46.16161" lon="6.66468">
        <ele>1275.2</ele>
        <time>2000-01-01T00:57:11.000Z</time>
      </trkpt>
      <trkpt lat="46.1616" lon="6.66472">
        <ele>1273.7</ele>
        <time>2000-01-01T00:57:21.000Z</time>
      </trkpt>
      <trkpt lat="46.16167" lon="6.66489">
        <ele>1271</ele>
        <time>2000-01-01T00:57:31.000Z</time>
      </trkpt>
      <trkpt lat="46.16167" lon="6.66494">
        <ele>1270.6</ele>
        <time>2000-01-01T00:57:41.000Z</time>
      </trkpt>
      <trkpt lat="46.16151" lon="6.66507">
        <ele>1262</ele>
        <time>2000-01-01T00:57:51.000Z</time>
      </trkpt>
      <trkpt lat="46.16151" lon="6.66518">
        <ele>1259.2</ele>
        <time>2000-01-01T00:58:01.000Z</time>
      </trkpt>
      <trkpt lat="46.16146" lon="6.66527">
        <ele>1255.5</ele>
        <time>2000-01-01T00:58:11.000Z</time>
      </trkpt>
      <trkpt lat="46.1613" lon="6.66519">
        <ele>1249</ele>
        <time>2000-01-01T00:58:21.000Z</time>
      </trkpt>
      <trkpt lat="46.16128" lon="6.66528">
        <ele>1249.4</ele>
        <time>2000-01-01T00:58:31.000Z</time>
      </trkpt>
      <trkpt lat="46.1613" lon="6.66545">
        <ele>1246.6</ele>
        <time>2000-01-01T00:58:41.000Z</time>
      </trkpt>
      <trkpt lat="46.16119" lon="6.66542">
        <ele>1240</ele>
        <time>2000-01-01T00:58:51.000Z</time>
      </trkpt>
      <trkpt lat="46.16116" lon="6.6655">
        <ele>1241.4</ele>
        <time>2000-01-01T00:59:01.000Z</time>
      </trkpt>
      <trkpt lat="46.16117" lon="6.66559">
        <ele>1240.1</ele>
        <time>2000-01-01T00:59:11.000Z</time>
      </trkpt>
      <trkpt lat="46.16112" lon="6.66567">
        <ele>1237</ele>
        <time>2000-01-01T00:59:21.000Z</time>
      </trkpt>
      <trkpt lat="46.16105" lon="6.66565">
        <ele>1235.2</ele>
        <time>2000-01-01T00:59:31.000Z</time>
      </trkpt>
      <trkpt lat="46.16097" lon="6.6657">
        <ele>1231.6</ele>
        <time>2000-01-01T00:59:41.000Z</time>
      </trkpt>
      <trkpt lat="46.16095" lon="6.66599">
        <ele>1224</ele>
        <time>2000-01-01T00:59:51.000Z</time>
      </trkpt>
      <trkpt lat="46.16069" lon="6.66621">
        <ele>1211</ele>
        <time>2000-01-01T01:00:01.000Z</time>
      </trkpt>
      <trkpt lat="46.16066" lon="6.66634">
        <ele>1212.2</ele>
        <time>2000-01-01T01:00:11.000Z</time>
      </trkpt>
      <trkpt lat="46.1609" lon="6.66676">
        <ele>1209</ele>
        <time>2000-01-01T01:00:21.000Z</time>
      </trkpt>
      <trkpt lat="46.16102" lon="6.66709">
        <ele>1208</ele>
        <time>2000-01-01T01:00:31.000Z</time>
      </trkpt>
      <trkpt lat="46.16116" lon="6.66752">
        <ele>1204</ele>
        <time>2000-01-01T01:00:41.000Z</time>
      </trkpt>
      <trkpt lat="46.16129" lon="6.66785">
        <ele>1202</ele>
        <time>2000-01-01T01:00:51.000Z</time>
      </trkpt>
      <trkpt lat="46.16144" lon="6.66825">
        <ele>1198</ele>
        <time>2000-01-01T01:01:01.000Z</time>
      </trkpt>
      <trkpt lat="46.16155" lon="6.6686">
        <ele>1194</ele>
        <time>2000-01-01T01:01:11.000Z</time>
      </trkpt>
      <trkpt lat="46.16169" lon="6.66903">
        <ele>1190</ele>
        <time>2000-01-01T01:01:21.000Z</time>
      </trkpt>
      <trkpt lat="46.16178" lon="6.66937">
        <ele>1188</ele>
        <time>2000-01-01T01:01:31.000Z</time>
      </trkpt>
      <trkpt lat="46.16188" lon="6.66975">
        <ele>1182</ele>
        <time>2000-01-01T01:01:41.000Z</time>
      </trkpt>
      <trkpt lat="46.16182" lon="6.66992">
        <ele>1178</ele>
        <time>2000-01-01T01:01:51.000Z</time>
      </trkpt>
      <trkpt lat="46.16164" lon="6.66993">
        <ele>1174</ele>
        <time>2000-01-01T01:02:01.000Z</time>
      </trkpt>
      <trkpt lat="46.16136" lon="6.66995">
        <ele>1168</ele>
        <time>2000-01-01T01:02:11.000Z</time>
      </trkpt>
      <trkpt lat="46.16097" lon="6.66998">
        <ele>1163</ele>
        <time>2000-01-01T01:02:21.000Z</time>
      </trkpt>
      <trkpt lat="46.16078" lon="6.66964">
        <ele>1163</ele>
        <time>2000-01-01T01:02:31.000Z</time>
      </trkpt>
    </trkseg>
  </trk>
</gpx>